Time;durP1;ratioP1;P1;durP2;ratioP2;P2;SDS_P1;SDS_P2;PMS_P1;PMS_P2;Temp;Humidity;BMP_temperature;BMP_pressure;BME280_temperature;BME280_humidity;BME280_pressure;Samples;Min_cycle;Max_cycle;Signal;HPM_P1;HPM_P2
2021/05/17 00:00:05;;;;;;;0.70;0.60;;;;;;;;;;5093305;28;20436;-71
2021/05/17 00:02:32;;;;;;;0.90;0.60;;;;;;;;;;5094042;28;20490;-71
2021/05/17 00:04:59;;;;;;;0.80;0.60;;;;;;;;;;5094322;28;20996;-71
2021/05/17 00:07:25;;;;;;;0.63;0.60;;;;;;;;;;5093677;28;20468;-72
2021/05/17 00:09:52;;;;;;;1.20;0.87;;;;;;;;;;5093617;28;20440;-71
2021/05/17 00:12:20;;;;;;;1.17;0.70;;;;;;;;;;5093677;28;20834;-71
2021/05/17 00:14:47;;;;;;;0.70;0.57;;;;;;;;;;5094373;28;20812;-71
2021/05/17 00:17:13;;;;;;;1.67;0.90;;;;;;;;;;5093866;28;20448;-71
2021/05/17 00:19:40;;;;;;;1.00;0.77;;;;;;;;;;5093419;28;20478;-71
2021/05/17 00:22:07;;;;;;;0.80;0.70;;;;;;;;;;5073474;28;20445;-71
2021/05/17 00:24:34;;;;;;;0.77;0.60;;;;;;;;;;5091726;28;20523;-71
2021/05/17 00:27:01;;;;;;;1.57;0.70;;;;;;;;;;5094160;28;20551;-71
2021/05/17 00:29:29;;;;;;;3.63;1.43;;;;;;;;;;5093179;28;20450;-71
2021/05/17 00:31:56;;;;;;;2.00;0.90;;;;;;;;;;5073924;28;20432;-71
2021/05/17 00:34:23;;;;;;;0.70;0.60;;;;;;;;;;5088732;28;20491;-71
2021/05/17 00:36:50;;;;;;;2.87;0.70;;;;;;;;;;5093754;28;20475;-72
2021/05/17 00:39:17;;;;;;;1.73;1.00;;;;;;;;;;5093120;28;20437;-71
2021/05/17 00:41:44;;;;;;;0.70;0.60;;;;;;;;;;5093638;28;20437;-71
2021/05/17 00:44:11;;;;;;;3.90;1.13;;;;;;;;;;5092891;28;20931;-71
2021/05/17 00:46:40;;;;;;;0.67;0.63;;;;;;;;;;5073426;28;20433;-71
2021/05/17 00:49:06;;;;;;;3.17;0.80;;;;;;;;;;5086221;28;20441;-70
2021/05/17 00:51:33;;;;;;;1.33;0.70;;;;;;;;;;5093308;28;20519;-71
2021/05/17 00:54:00;;;;;;;2.10;0.70;;;;;;;;;;5093327;28;20457;-71
2021/05/17 00:56:27;;;;;;;2.43;0.73;;;;;;;;;;5093025;28;20441;-72
2021/05/17 00:58:54;;;;;;;0.90;0.60;;;;;;;;;;5092754;28;20519;-71
2021/05/17 01:01:20;;;;;;;3.07;0.90;;;;;;;;;;5092493;28;20445;-71
2021/05/17 01:03:48;;;;;;;1.00;0.70;;;;;;;;;;5093569;28;20649;-71
2021/05/17 01:06:17;;;;;;;1.00;0.63;;;;;;;;;;5092746;28;20863;-71
2021/05/17 01:08:47;;;;;;;5.03;0.80;;;;;;;;;;5092945;28;20468;-71
2021/05/17 01:11:15;;;;;;;0.90;0.70;;;;;;;;;;5092338;28;20508;-71
2021/05/17 01:13:42;;;;;;;0.77;0.70;;;;;;;;;;5092279;28;20516;-71
2021/05/17 01:16:09;;;;;;;1.23;0.77;;;;;;;;;;5092572;28;20445;-71
2021/05/17 01:18:35;;;;;;;1.53;0.60;;;;;;;;;;5092585;28;20435;-71
2021/05/17 01:21:03;;;;;;;1.47;0.40;;;;;;;;;;5092560;28;20528;-71
2021/05/17 01:26:13;;;;;;;0.70;0.63;;;;;;;;;;5090401;28;20425;-71
2021/05/17 01:28:40;;;;;;;0.60;0.60;;;;;;;;;;5092503;28;20484;-71
2021/05/17 01:31:09;;;;;;;1.23;0.80;;;;;;;;;;5092686;28;20570;-71
2021/05/17 01:33:36;;;;;;;1.43;0.80;;;;;;;;;;5092851;28;20436;-71
2021/05/17 01:36:04;;;;;;;1.50;1.40;;;;;;;;;;5092691;28;20797;-71
2021/05/17 01:38:33;;;;;;;0.87;0.60;;;;;;;;;;5092012;28;20451;-71
2021/05/17 01:40:59;;;;;;;0.70;0.60;;;;;;;;;;5092248;28;21019;-71
2021/05/17 01:43:26;;;;;;;1.63;0.63;;;;;;;;;;5091215;28;20441;-71
2021/05/17 01:45:53;;;;;;;0.60;0.50;;;;;;;;;;5092463;28;20607;-71
2021/05/17 01:48:21;;;;;;;1.17;0.60;;;;;;;;;;5091341;28;20551;-71
2021/05/17 01:50:47;;;;;;;2.10;0.70;;;;;;;;;;5092666;28;20442;-71
2021/05/17 01:53:16;;;;;;;2.10;0.90;;;;;;;;;;5091725;28;20476;-71
2021/05/17 01:55:44;;;;;;;2.30;0.63;;;;;;;;;;5092175;28;20475;-71
2021/05/17 01:58:11;;;;;;;1.90;0.77;;;;;;;;;;5091204;28;20540;-71
2021/05/17 02:00:40;;;;;;;0.80;0.50;;;;;;;;;;5093375;28;20488;-71
2021/05/17 02:03:08;;;;;;;0.83;0.80;;;;;;;;;;5097925;28;20447;-72
2021/05/17 02:05:35;;;;;;;1.30;0.70;;;;;;;;;;5112002;28;20467;-72
2021/05/17 02:08:02;;;;;;;1.27;0.70;;;;;;;;;;5109368;28;20952;-71
2021/05/17 02:10:29;;;;;;;0.80;0.70;;;;;;;;;;5091088;28;20490;-71
2021/05/17 02:12:57;;;;;;;1.83;1.00;;;;;;;;;;5092045;28;20551;-71
2021/05/17 02:15:24;;;;;;;0.80;0.63;;;;;;;;;;5090982;28;20440;-71
2021/05/17 02:18:01;;;;;;;1.80;0.60;;;;;;;;;;5091715;28;20441;-71
2021/05/17 02:20:30;;;;;;;0.60;0.60;;;;;;;;;;5091659;28;20428;-71
2021/05/17 02:22:57;;;;;;;1.87;0.80;;;;;;;;;;5091483;28;20532;-71
2021/05/17 02:25:24;;;;;;;1.20;0.67;;;;;;;;;;5091262;28;20445;-71
2021/05/17 02:27:51;;;;;;;1.17;0.60;;;;;;;;;;5091432;28;20479;-71
2021/05/17 02:30:19;;;;;;;1.20;0.70;;;;;;;;;;5090957;28;20523;-71
2021/05/17 02:32:46;;;;;;;1.00;0.87;;;;;;;;;;5091378;28;20472;-71
2021/05/17 02:35:13;;;;;;;1.20;0.60;;;;;;;;;;5090701;28;20490;-71
2021/05/17 02:37:40;;;;;;;0.60;0.50;;;;;;;;;;5091823;28;20453;-71
2021/05/17 02:40:07;;;;;;;1.27;0.50;;;;;;;;;;5091538;28;20511;-71
2021/05/17 02:42:35;;;;;;;2.50;0.67;;;;;;;;;;5091446;28;20883;-71
2021/05/17 02:45:03;;;;;;;0.50;0.50;;;;;;;;;;5091533;28;20515;-71
2021/05/17 02:47:33;;;;;;;4.10;0.70;;;;;;;;;;5090671;28;20500;-71
2021/05/17 02:50:00;;;;;;;3.00;0.70;;;;;;;;;;5091650;28;20445;-71
2021/05/17 02:52:30;;;;;;;5.20;0.70;;;;;;;;;;5090746;28;20527;-71
2021/05/17 02:55:01;;;;;;;1.80;0.60;;;;;;;;;;5091509;28;20429;-71
2021/05/17 02:57:36;;;;;;;0.93;0.63;;;;;;;;;;5091177;28;20488;-71
2021/05/17 03:00:11;;;;;;;0.50;0.50;;;;;;;;;;5091193;28;20512;-72
2021/05/17 03:02:41;;;;;;;0.90;0.50;;;;;;;;;;5086814;28;20435;-71
2021/05/17 03:05:08;;;;;;;0.57;0.47;;;;;;;;;;5091270;28;21016;-71
2021/05/17 03:07:39;;;;;;;1.30;0.67;;;;;;;;;;5090716;28;20476;-71
2021/05/17 03:10:06;;;;;;;1.57;0.57;;;;;;;;;;5089660;28;20437;-71
2021/05/17 03:12:34;;;;;;;2.50;0.63;;;;;;;;;;5090553;28;20450;-71
2021/05/17 03:15:02;;;;;;;0.70;0.50;;;;;;;;;;5075558;28;22369;-71
2021/05/17 03:17:29;;;;;;;1.73;0.50;;;;;;;;;;5090541;28;20440;-71
2021/05/17 03:19:56;;;;;;;0.80;0.60;;;;;;;;;;5090995;28;20966;-71
2021/05/17 03:22:24;;;;;;;1.00;0.50;;;;;;;;;;5089020;28;20445;-71
2021/05/17 03:24:52;;;;;;;0.93;0.80;;;;;;;;;;5090519;28;20436;-71
2021/05/17 03:27:20;;;;;;;0.63;0.50;;;;;;;;;;5092742;28;20878;-70
2021/05/17 03:29:47;;;;;;;1.53;0.80;;;;;;;;;;5095194;28;20520;-71
2021/05/17 03:32:14;;;;;;;0.50;0.40;;;;;;;;;;5095172;28;20432;-71
2021/05/17 03:34:41;;;;;;;2.20;0.60;;;;;;;;;;5095348;28;20527;-71
2021/05/17 03:37:09;;;;;;;0.63;0.50;;;;;;;;;;5094249;28;20451;-71
2021/05/17 03:39:35;;;;;;;1.93;0.70;;;;;;;;;;5094088;28;20729;-71
2021/05/17 03:42:02;;;;;;;1.20;0.57;;;;;;;;;;5095246;28;20424;-72
2021/05/17 03:44:29;;;;;;;1.33;0.90;;;;;;;;;;5094827;28;20491;-72
2021/05/17 03:46:56;;;;;;;0.70;0.50;;;;;;;;;;5095325;28;20433;-70
2021/05/17 03:49:22;;;;;;;0.70;0.53;;;;;;;;;;5094193;28;20535;-70
2021/05/17 03:51:50;;;;;;;0.87;0.60;;;;;;;;;;5095123;28;20435;-70
2021/05/17 03:54:18;;;;;;;0.70;0.60;;;;;;;;;;5095811;28;20559;-71
2021/05/17 03:56:45;;;;;;;2.57;0.60;;;;;;;;;;5095665;28;20440;-70
2021/05/17 03:59:14;;;;;;;1.13;0.60;;;;;;;;;;5096207;28;20436;-71
2021/05/17 04:01:41;;;;;;;2.90;1.77;;;;;;;;;;5094953;28;20498;-71
2021/05/17 04:04:08;;;;;;;2.30;1.57;;;;;;;;;;5098806;28;20437;-70
2021/05/17 04:06:42;;;;;;;1.63;0.90;;;;;;;;;;5101413;28;20591;-71
2021/05/17 04:14:40;;;;;;;0.70;0.60;;;;;;;;;;5114354;28;20428;-70
2021/05/17 04:17:07;;;;;;;1.93;0.80;;;;;;;;;;5116251;28;20436;-70
2021/05/17 04:19:33;;;;;;;0.70;0.63;;;;;;;;;;5113035;28;20473;-68
2021/05/17 04:22:00;;;;;;;2.60;1.47;;;;;;;;;;5114998;28;20460;-70
2021/05/17 04:24:27;;;;;;;1.30;1.00;;;;;;;;;;5113527;28;20473;-70
2021/05/17 04:26:54;;;;;;;1.67;0.70;;;;;;;;;;5108952;28;20475;-71
2021/05/17 04:29:21;;;;;;;1.67;0.67;;;;;;;;;;5095616;28;20443;-70
2021/05/17 04:31:48;;;;;;;0.90;0.70;;;;;;;;;;5094517;28;20435;-70
2021/05/17 04:34:14;;;;;;;1.07;0.80;;;;;;;;;;5094574;28;20917;-70
2021/05/17 04:36:41;;;;;;;0.80;0.60;;;;;;;;;;5093787;28;20454;-69
2021/05/17 04:39:08;;;;;;;1.77;0.83;;;;;;;;;;5093368;28;20519;-71
2021/05/17 04:41:34;;;;;;;2.00;0.67;;;;;;;;;;5093226;28;20436;-70
2021/05/17 04:44:02;;;;;;;1.53;0.80;;;;;;;;;;5094433;28;20470;-70
2021/05/17 04:46:28;;;;;;;0.87;0.60;;;21.50;1.00;;;;;;5093475;28;20432;-70
2021/05/17 04:48:55;;;;;;;2.40;0.70;;;11.70;99.90;;;;;;5093971;28;20485;-70
2021/05/17 04:51:23;;;;;;;0.70;0.60;;;11.50;99.90;;;;;;5092915;28;20509;-70
2021/05/17 04:53:50;;;;;;;1.40;0.77;;;11.40;99.90;;;;;;5093141;28;20476;-70
2021/05/17 04:56:17;;;;;;;1.40;0.60;;;11.20;99.90;;;;;;5093716;28;20460;-70
2021/05/17 04:58:44;;;;;;;0.70;0.57;;;11.10;99.90;;;;;;5093254;28;20437;-70
2021/05/17 05:01:11;;;;;;;1.43;0.60;;;11.00;99.90;;;;;;5093334;28;20447;-70
2021/05/17 05:03:38;;;;;;;1.30;0.73;;;11.00;99.90;;;;;;5092978;28;20515;-70
2021/05/17 05:06:04;;;;;;;0.93;0.70;;;11.00;99.90;;;;;;5093209;28;20444;-70
2021/05/17 05:08:31;;;;;;;0.80;0.57;;;11.00;99.90;;;;;;5092988;28;20476;-70
2021/05/17 05:10:57;;;;;;;1.47;0.70;;;10.90;99.90;;;;;;5093735;28;20464;-70
2021/05/17 05:13:24;;;;;;;0.70;0.50;;;11.00;99.90;;;;;;5092830;28;20532;-70
2021/05/17 05:15:53;;;;;;;1.57;0.60;;;11.00;99.90;;;;;;5093397;28;20464;-70
2021/05/17 05:18:22;;;;;;;3.30;0.70;;;10.90;36.50;;;;;;5093498;28;20448;-71
2021/05/17 05:20:49;;;;;;;1.13;0.57;;;11.00;99.90;;;;;;5092903;28;20440;-71
2021/05/17 05:23:18;;;;;;;2.90;0.60;;;11.00;13.10;;;;;;5093256;28;20826;-70
2021/05/17 05:28:35;;;;;;;0.70;0.70;;;11.10;1.00;;;;;;5083221;28;20510;-70
2021/05/17 05:31:05;;;;;;;3.57;0.60;;;11.10;1.00;;;;;;5093090;28;20420;-70
2021/05/17 05:33:32;;;;;;;0.60;0.57;;;11.10;1.00;;;;;;5092634;28;20420;-70
2021/05/17 05:35:59;;;;;;;1.07;0.63;;;11.20;99.90;;;;;;5092903;28;20436;-70
2021/05/17 05:38:25;;;;;;;0.87;0.63;;;11.40;99.90;;;;;;5092280;28;20437;-70
2021/05/17 05:40:52;;;;;;;0.70;0.60;;;11.40;99.90;;;;;;5092956;28;20441;-70
2021/05/17 05:43:18;;;;;;;1.53;0.50;;;11.50;1.00;;;;;;5092695;28;20464;-71
2021/05/17 05:45:45;;;;;;;0.60;0.50;;;11.50;1.00;;;;;;5091705;28;20451;-70
2021/05/17 05:48:12;;;;;;;0.63;0.43;;;11.60;99.90;;;;;;5092315;28;20474;-70
2021/05/17 05:50:39;;;;;;;0.70;0.67;;;11.50;1.00;;;;;;5091496;28;20547;-71
2021/05/17 05:53:06;;;;;;;1.70;0.50;;;11.50;1.00;;;;;;5092363;28;20559;-70
2021/05/17 05:55:33;;;;;;;0.60;0.50;;;11.60;1.00;;;;;;5092031;28;20607;-70
2021/05/17 05:57:59;;;;;;;1.17;0.50;;;11.60;99.90;;;;;;5092721;28;20464;-70
2021/05/17 06:00:30;;;;;;;0.73;0.73;;;11.60;99.90;;;;;;5091932;28;20472;-71
2021/05/17 06:02:57;;;;;;;1.27;0.63;;;11.80;1.00;;;;;;5092407;28;20777;-70
2021/05/17 06:05:23;;;;;;;0.60;0.50;;;11.80;1.00;;;;;;5092500;28;20527;-70
2021/05/17 06:07:51;;;;;;;0.60;0.40;;;11.80;1.00;;;;;;5091959;28;20571;-70
2021/05/17 06:10:18;;;;;;;0.50;0.40;;;12.00;99.90;;;;;;5092119;28;20440;-70
2021/05/17 06:12:47;;;;;;;1.00;0.70;;;12.10;1.00;;;;;;5091971;28;20433;-71
2021/05/17 06:15:14;;;;;;;0.80;0.60;;;12.10;99.90;;;;;;5091995;28;20440;-71
2021/05/17 06:17:42;;;;;;;0.80;0.60;;;12.10;1.00;;;;;;5091746;28;20536;-70
2021/05/17 06:20:09;;;;;;;0.90;0.70;;;12.20;1.00;;;;;;5092022;28;20520;-71
2021/05/17 06:22:37;;;;;;;1.33;0.60;;;12.30;99.90;;;;;;5093970;28;20535;-70
2021/05/17 06:25:07;;;;;;;1.00;0.70;;;12.10;99.90;;;;;;5093359;28;21015;-70
2021/05/17 06:27:34;;;;;;;1.90;0.87;;;12.10;99.90;;;;;;5091236;28;20472;-71
2021/05/17 06:30:01;;;;;;;1.00;0.63;;;12.20;1.00;;;;;;5092012;28;20554;-70
2021/05/17 06:32:29;;;;;;;0.90;0.50;;;12.30;99.90;;;;;;5091177;28;20519;-72
2021/05/17 06:34:56;;;;;;;1.03;0.50;;;12.30;99.90;;;;;;5091963;28;20464;-70
2021/05/17 06:37:22;;;;;;;0.60;0.50;;;12.10;1.00;;;;;;5091974;28;20841;-70
2021/05/17 06:39:49;;;;;;;4.23;0.63;;;12.30;99.90;;;;;;5091175;28;20440;-70
2021/05/17 06:42:18;;;;;;;0.70;0.60;;;12.30;91.60;;;;;;5091550;28;20928;-70
2021/05/17 06:44:45;;;;;;;4.00;1.00;;;12.40;1.00;;;;;;5091587;28;20531;-70
2021/05/17 06:47:12;;;;;;;0.70;0.50;;;12.50;75.00;;;;;;5091660;28;20490;-71
2021/05/17 06:49:39;;;;;;;0.77;0.50;;;12.40;43.60;;;;;;5091005;28;20531;-70
2021/05/17 06:52:07;;;;;;;1.00;0.83;;;12.30;99.90;;;;;;5091570;28;20483;-70
2021/05/17 06:54:34;;;;;;;1.20;0.73;;;12.40;1.00;;;;;;5090431;28;20468;-70
2021/05/17 06:57:10;;;;;;;2.30;0.67;;;12.40;1.00;;;;;;5091131;28;20472;-70
2021/05/17 06:59:43;;;;;;;1.10;0.50;;;12.40;1.00;;;;;;5091103;28;20513;-70
2021/05/17 07:02:17;;;;;;;0.60;0.50;;;12.30;59.40;;;;;;5098115;28;20437;-70
2021/05/17 07:04:44;;;;;;;1.50;0.70;;;12.20;49.30;;;;;;5097402;28;20888;-70
2021/05/17 07:07:11;;;;;;;0.67;0.50;;;12.20;99.90;;;;;;5098143;28;20515;-70
2021/05/17 07:12:22;;;;;;;1.27;0.53;;;12.10;1.00;;;;;;5097970;28;20419;-70
2021/05/17 07:14:49;;;;;;;2.17;0.50;;;12.10;1.00;;;;;;5097606;28;20673;-70
2021/05/17 07:17:16;;;;;;;4.57;0.67;;;12.00;14.40;;;;;;5098235;28;20550;-70
2021/05/17 07:19:43;;;;;;;0.70;0.57;;;12.00;99.90;;;;;;5097565;28;20436;-69
2021/05/17 07:24:54;;;;;;;0.80;0.40;;;12.00;99.90;;;;;;5098491;28;20482;-70
2021/05/17 07:27:20;;;;;;;0.87;0.70;;;11.90;99.90;;;;;;5098009;28;20472;-70
2021/05/17 07:29:49;;;;;;;0.70;0.50;;;12.00;99.90;;;;;;5097505;28;20534;-70
2021/05/17 07:32:16;;;;;;;0.80;0.53;;;12.00;99.90;;;;;;5098151;28;20445;-70
2021/05/17 07:34:43;;;;;;;0.90;0.50;;;12.00;1.00;;;;;;5097484;28;20527;-70
2021/05/17 07:37:09;;;;;;;0.90;0.50;;;12.10;5.20;;;;;;5097830;28;20461;-70
2021/05/17 07:39:36;;;;;;;0.80;0.60;;;12.20;90.50;;;;;;5097093;28;20531;-71
2021/05/17 07:42:04;;;;;;;0.90;0.40;;;12.40;99.90;;;;;;5097725;28;21013;-71
2021/05/17 07:44:31;;;;;;;1.13;0.50;;;12.50;1.00;;;;;;5097191;28;20515;-70
2021/05/17 07:46:57;;;;;;;0.90;0.60;;;12.70;99.90;;;;;;5097555;28;20514;-70
2021/05/17 07:49:34;;;;;;;1.17;0.73;;;12.80;1.00;;;;;;5097742;28;20563;-70
2021/05/17 07:52:00;;;;;;;1.23;0.80;;;;;;;;;;5097804;28;20443;-70
2021/05/17 07:54:27;;;;;;;0.90;0.43;;;;;;;;;;5098087;28;20625;-70
2021/05/17 07:56:54;;;;;;;1.33;0.70;;;;;;;;;;5097392;28;20444;-70
2021/05/17 07:59:23;;;;;;;3.03;0.70;;;;;;;;;;5097578;28;20444;-70
2021/05/17 08:01:52;;;;;;;3.23;0.70;;;;;;;;;;5097138;28;20479;-70
2021/05/17 08:04:19;;;;;;;0.50;0.40;;;;;;;;;;5097499;28;20445;-72
2021/05/17 08:06:47;;;;;;;1.03;0.70;;;;;;;;;;5096831;28;20912;-70
2021/05/17 08:09:13;;;;;;;1.77;0.57;;;;;;;;;;5097341;28;20695;-70
2021/05/17 08:11:40;;;;;;;3.13;0.87;;;;;;;;;;5096391;28;20464;-70
2021/05/17 08:14:07;;;;;;;1.47;0.50;;;;;;;;;;5094225;28;20467;-70
2021/05/17 08:16:34;;;;;;;2.60;0.50;;;;;;;;;;5093555;28;20543;-70
2021/05/17 08:19:01;;;;;;;2.63;0.80;;;;;;;;;;5094469;28;20444;-70
2021/05/17 08:21:28;;;;;;;2.30;0.70;;;;;;;;;;5094428;28;20436;-71
2021/05/17 08:23:57;;;;;;;1.53;0.63;;;;;;;;;;5093833;28;20487;-70
2021/05/17 08:26:24;;;;;;;0.67;0.50;;;;;;;;;;5094319;28;20432;-70
2021/05/17 08:28:51;;;;;;;0.60;0.50;;;;;;;;;;5093294;28;21029;-70
2021/05/17 08:31:20;;;;;;;0.70;0.60;;;;;;;;;;5094317;28;20476;-70
2021/05/17 08:33:47;;;;;;;0.90;0.67;;;;;;;;;;5093569;28;20441;-70
2021/05/17 08:36:14;;;;;;;0.83;0.67;;;;;;;;;;5094083;28;20487;-70
2021/05/17 08:38:41;;;;;;;3.87;0.87;;;;;;;;;;5093240;28;20791;-70
2021/05/17 08:41:10;;;;;;;0.87;0.77;;;;;;;;;;5093908;28;20436;-70
2021/05/17 08:43:37;;;;;;;0.90;0.60;;;;;;;;;;5093593;28;20737;-70
2021/05/17 08:46:04;;;;;;;1.10;0.70;;;;;;;;;;5093831;28;20796;-70
2021/05/17 08:48:31;;;;;;;2.90;1.10;;;;;;;;;;5093920;28;20476;-70
2021/05/17 08:50:58;;;;;;;1.40;0.77;;;;;;;;;;5093384;28;20444;-70
2021/05/17 08:53:24;;;;;;;0.90;0.50;;;;;;;;;;5093163;28;20551;-70
2021/05/17 08:55:51;;;;;;;1.97;0.70;;;;;;;;;;5093145;28;20472;-70
2021/05/17 08:58:20;;;;;;;1.73;0.60;;;;;;;;;;5093707;28;20444;-71
2021/05/17 09:00:47;;;;;;;2.43;0.63;;;;;;;;;;5092801;28;20999;-70
2021/05/17 09:03:14;;;;;;;1.00;0.60;;;;;;;;;;5093757;28;20837;-71
2021/05/17 09:05:47;;;;;;;2.93;0.53;;;;;;;;;;5092835;28;20445;-70
2021/05/17 09:08:15;;;;;;;1.37;0.60;;;;;;;;;;5093449;28;20503;-70
2021/05/17 09:10:42;;;;;;;0.70;0.50;;;;;;;;;;5092872;28;20440;-70
2021/05/17 09:13:09;;;;;;;0.87;0.50;;;;;;;;;;5093474;28;20840;-71
2021/05/17 09:15:38;;;;;;;1.53;0.63;;;;;;;;;;5093036;28;20493;-70
2021/05/17 09:18:07;;;;;;;2.07;0.73;;;;;;;;;;5093421;28;20519;-70
2021/05/17 09:20:35;;;;;;;0.90;0.50;;;;;;;;;;5093314;28;20867;-70
2021/05/17 09:23:10;;;;;;;1.43;0.57;;;;;;;;;;5092626;28;20932;-70
2021/05/17 09:25:37;;;;;;;0.80;0.80;;;;;;;;;;5091670;28;20437;-70
2021/05/17 09:28:04;;;;;;;0.70;0.60;;;;;;;;;;5092704;28;20948;-70
2021/05/17 09:30:48;;;;;;;1.93;0.63;;;;;;;;;;5092994;28;20793;-70
2021/05/17 09:33:16;;;;;;;0.80;0.50;;;;;;;;;;5092894;28;20790;-70
2021/05/17 09:35:44;;;;;;;0.83;0.70;;;;;;;;;;5092088;28;20838;-70
2021/05/17 09:38:18;;;;;;;0.60;0.50;;;;;;;;;;5093108;28;20487;-70
2021/05/17 09:40:45;;;;;;;3.53;0.80;;;;;;;;;;5092019;28;20416;-70
2021/05/17 09:43:13;;;;;;;1.00;0.80;;;;;;;;;;5092515;28;20441;-70
2021/05/17 09:45:41;;;;;;;1.20;0.60;;;;;;;;;;5092129;28;20437;-71
2021/05/17 09:48:09;;;;;;;1.17;0.57;;;;;;;;;;5092415;28;20478;-70
2021/05/17 09:50:51;;;;;;;1.83;0.60;;;;;;;;;;5092464;28;20441;-70
2021/05/17 09:53:22;;;;;;;1.07;0.70;;;;;;;;;;5092285;28;20533;-70
2021/05/17 09:55:49;;;;;;;0.90;0.60;;;;;;;;;;5091721;28;20921;-70
2021/05/17 09:58:26;;;;;;;0.90;0.63;;;;;;;;;;5092420;28;20857;-70
2021/05/17 10:01:04;;;;;;;1.80;0.70;;;;;;;;;;5091858;28;20511;-71
2021/05/17 10:03:34;;;;;;;4.00;0.67;;;12.90;99.90;;;;;;5092359;28;20545;-70
2021/05/17 10:06:01;;;;;;;0.80;0.50;;;;;;;;;;5091706;28;20421;-70
2021/05/17 10:08:28;;;;;;;1.73;0.50;;;;;;;;;;5092022;28;20956;-70
2021/05/17 10:10:55;;;;;;;0.90;0.60;;;;;;;;;;5091849;28;20468;-70
2021/05/17 10:13:22;;;;;;;1.07;0.60;;;;;;;;;;5092358;28;20516;-70
2021/05/17 10:15:49;;;;;;;0.50;0.50;;;;;;;;;;5091626;28;20459;-70
2021/05/17 10:18:16;;;;;;;0.60;0.50;;;;;;;;;;5091962;28;20444;-70
2021/05/17 10:20:44;;;;;;;1.43;0.60;;;;;;;;;;5091528;28;20787;-70
2021/05/17 10:23:13;;;;;;;3.03;0.60;;;;;;;;;;5091587;28;20540;-70
2021/05/17 10:25:40;;;;;;;0.87;0.40;;;;;;;;;;5091829;28;20425;-71
2021/05/17 10:28:08;;;;;;;2.60;0.67;;;;;;;;;;5091774;28;20468;-70
2021/05/17 10:30:36;;;;;;;1.80;0.60;;;;;;;;;;5091817;28;20802;-70
2021/05/17 10:33:04;;;;;;;1.47;1.20;;;;;;;;;;5090984;28;20472;-70
2021/05/17 10:35:32;;;;;;;0.93;0.50;;;;;;;;;;5091035;28;20896;-70
2021/05/17 10:38:18;;;;;;;1.10;0.70;;;;;;;;;;5090958;28;20509;-70
2021/05/17 10:40:46;;;;;;;0.80;0.70;;;;;;;;;;5090982;28;20490;-70
2021/05/17 10:43:21;;;;;;;2.40;0.70;;;;;;;;;;5091819;28;20437;-70
2021/05/17 10:48:34;;;;;;;1.60;0.80;;;;;;;;;;5091607;28;20539;-69
2021/05/17 10:51:19;;;;;;;0.83;0.70;;;;;;;;;;5091187;28;20727;-69
2021/05/17 10:53:49;;;;;;;3.73;0.50;;;;;;;;;;5090861;28;20472;-69
2021/05/17 10:56:18;;;;;;;1.63;0.70;;;;;;;;;;5091413;28;20444;-69
2021/05/17 11:01:51;;;;;;;2.70;0.70;;;;;;;;;;5090855;28;20969;-69
2021/05/17 11:04:25;;;;;;;2.40;0.80;;;;;;;;;;5091276;28;20425;-70
2021/05/17 11:07:06;;;;;;;2.30;0.90;;;;;;;;;;5091077;28;20786;-70
2021/05/17 11:09:40;;;;;;;1.90;0.77;;;;;;;;;;5091109;28;20837;-70
2021/05/17 11:12:19;;;;;;;4.00;2.30;;;;;;;;;;5090762;28;20451;-70
2021/05/17 11:15:01;;;;;;;2.50;2.07;;;;;;;;;;5091013;28;20751;-70
2021/05/17 11:17:27;;;;;;;0.93;0.63;;;;;;;;;;5091600;28;20475;-71
2021/05/17 11:19:55;;;;;;;0.90;0.67;;;;;;;;;;5090879;28;20527;-70
2021/05/17 11:22:21;;;;;;;0.73;0.70;;;;;;;;;;5091236;28;20517;-70
2021/05/17 11:24:48;;;;;;;0.63;0.60;;;;;;;;;;5090812;28;20527;-70
2021/05/17 11:27:15;;;;;;;0.70;0.70;;;;;;;;;;5091275;28;20482;-70
2021/05/17 11:29:42;;;;;;;2.40;0.83;;;;;;;;;;5091340;28;20479;-70
2021/05/17 11:32:10;;;;;;;1.20;0.50;;;;;;;;;;5091412;28;20447;-70
2021/05/17 11:34:57;;;;;;;1.27;0.80;;;;;;;;;;5091030;28;20437;-71
2021/05/17 11:37:25;;;;;;;2.10;0.97;;;;;;;;;;5091426;28;20456;-71
2021/05/17 11:39:51;;;;;;;2.10;0.73;;;;;;;;;;5090630;28;20478;-71
2021/05/17 11:42:19;;;;;;;2.03;0.73;;;;;;;;;;5091010;28;20436;-70
2021/05/17 11:44:53;;;;;;;0.80;0.60;;;;;;;;;;5090593;28;20477;-70
2021/05/17 11:47:21;;;;;;;1.10;0.40;;;;;;;;;;5091844;28;20541;-68
2021/05/17 11:49:48;;;;;;;1.10;0.60;;;;;;;;;;5093991;28;20578;-68
2021/05/17 11:52:15;;;;;;;2.40;0.90;;;;;;;;;;5094687;28;20535;-68
2021/05/17 11:54:45;;;;;;;1.13;0.80;;;;;;;;;;5094608;28;20936;-68
2021/05/17 11:57:13;;;;;;;1.63;0.57;;;;;;;;;;5094657;28;20790;-69
2021/05/17 11:59:40;;;;;;;0.80;0.60;;;;;;;;;;5094623;28;20454;-68
2021/05/17 12:02:07;;;;;;;0.80;0.60;;;;;;;;;;5094057;28;20467;-68
2021/05/17 12:04:34;;;;;;;1.10;0.60;;;;;;;;;;5094263;28;20539;-68
2021/05/17 12:07:02;;;;;;;0.50;0.40;;;;;;;;;;5094017;28;20527;-69
2021/05/17 12:09:39;;;;;;;1.00;0.40;;;;;;;;;;5094413;28;20603;-69
2021/05/17 12:12:11;;;;;;;0.63;0.50;;;;;;;;;;5093735;28;20468;-69
2021/05/17 12:14:39;;;;;;;1.73;0.50;;;;;;;;;;5094059;28;20936;-69
2021/05/17 12:17:10;;;;;;;1.17;0.50;;;;;;;;;;5093795;28;20441;-69
2021/05/17 12:19:37;;;;;;;0.63;0.40;;;;;;;;;;5093683;28;20527;-70
2021/05/17 12:22:05;;;;;;;0.60;0.50;;;;;;;;;;5093589;28;20436;-69
2021/05/17 12:24:32;;;;;;;0.70;0.50;;;;;;;;;;5093896;28;20527;-69
2021/05/17 12:27:00;;;;;;;2.40;0.50;;;;;;;;;;5093265;28;20440;-69
2021/05/17 12:29:29;;;;;;;2.87;0.47;;;;;;;;;;5093714;28;20477;-70
2021/05/17 12:32:08;;;;;;;0.80;0.47;;;;;;;;;;5092624;28;20952;-69
2021/05/17 12:34:35;;;;;;;2.40;0.50;;;;;;;;;;5093919;28;20832;-70
2021/05/17 12:37:02;;;;;;;0.70;0.43;;;;;;;;;;5093075;28;20437;-70
2021/05/17 12:39:28;;;;;;;0.50;0.40;;;;;;;;;;5093547;28;20493;-70
2021/05/17 12:41:55;;;;;;;1.43;0.63;;;;;;;;;;5092512;28;20445;-70
2021/05/17 12:44:29;;;;;;;1.07;0.57;;;;;;;;;;5093457;28;20440;-71
2021/05/17 12:47:03;;;;;;;1.67;0.50;;;;;;;;;;5092002;28;20921;-70
2021/05/17 12:49:43;;;;;;;0.90;0.40;;;;;;;;;;5093308;28;20555;-70
2021/05/17 12:52:10;;;;;;;1.47;0.50;;;;;;;;;;5092455;28;20460;-70
2021/05/17 12:54:36;;;;;;;0.57;0.47;;;;;;;;;;5092714;28;20504;-70
2021/05/17 12:57:07;;;;;;;0.60;0.40;;;;;;;;;;5092191;28;20440;-70
2021/05/17 12:59:45;;;;;;;0.80;0.60;;;;;;;;;;5092523;28;20956;-71
2021/05/17 13:02:12;;;;;;;0.80;0.60;;;;;;;;;;5092529;28;20609;-71
2021/05/17 13:04:39;;;;;;;0.87;0.40;;;;;;;;;;5092771;28;20902;-70
2021/05/17 13:07:07;;;;;;;0.60;0.50;;;;;;;;;;5092262;28;20444;-70
2021/05/17 13:09:34;;;;;;;0.73;0.73;;;;;;;;;;5093191;28;20525;-70
2021/05/17 13:12:01;;;;;;;0.90;0.50;;;;;;;;;;5092421;28;20445;-71
2021/05/17 13:14:28;;;;;;;0.73;0.60;;;;;;;;;;5093102;28;20882;-70
2021/05/17 13:17:00;;;;;;;0.60;0.47;;;;;;;;;;5092416;28;20436;-70
2021/05/17 13:30:53;;;;;;;1.63;0.60;;;;;;;;;;5092519;28;20412;-71
2021/05/17 13:33:25;;;;;;;0.73;0.50;;;;;;;;;;5092948;28;20475;-71
2021/05/17 13:35:52;;;;;;;1.37;1.27;;;;;;;;;;5091884;28;20429;-70
2021/05/17 13:38:19;;;;;;;0.93;0.50;;;;;;;;;;5092720;28;20479;-71
2021/05/17 13:40:46;;;;;;;0.80;0.40;;;;;;;;;;5092777;28;20791;-71
2021/05/17 13:43:13;;;;;;;1.17;0.60;;;;;;;;;;5092073;28;20530;-71
2021/05/17 13:45:39;;;;;;;0.87;0.50;;;;;;;;;;5092571;28;20440;-71
2021/05/17 13:48:06;;;;;;;0.90;0.50;;;;;;;;;;5091748;28;20563;-71
2021/05/17 13:50:34;;;;;;;0.60;0.50;;;;;;;;;;5092766;28;20835;-71
2021/05/17 13:53:01;;;;;;;1.47;0.50;;;;;;;;;;5091604;28;20832;-71
2021/05/17 13:55:27;;;;;;;1.17;0.57;;;;;;;;;;5092611;28;20441;-70
2021/05/17 13:57:56;;;;;;;1.23;0.50;;;;;;;;;;5092029;28;20523;-70
2021/05/17 14:00:23;;;;;;;0.80;0.50;;;;;;;;;;5092409;28;20443;-70
2021/05/17 14:02:49;;;;;;;1.20;1.00;;;14.10;9.10;;;;;;5092364;28;20540;-71
2021/05/17 14:05:16;;;;;;;0.60;0.50;;;;;;;;;;5091379;28;20974;-70
2021/05/17 14:07:44;;;;;;;0.80;0.50;;;;;;;;;;5092103;28;20578;-70
2021/05/17 14:10:11;;;;;;;2.20;0.50;;;;;;;;;;5090762;28;21003;-71
2021/05/17 14:12:38;;;;;;;0.70;0.43;;;;;;;;;;5091993;28;20462;-71
2021/05/17 14:15:06;;;;;;;0.60;0.47;;;;;;;;;;5091583;28;20527;-70
2021/05/17 14:17:32;;;;;;;0.97;0.40;;;;;;;;;;5092059;28;20448;-71
2021/05/17 14:19:59;;;;;;;1.33;0.70;;;;;;;;;;5091524;28;20444;-71
2021/05/17 14:22:27;;;;;;;0.70;0.60;;;;;;;;;;5092125;28;20543;-71
2021/05/17 14:24:55;;;;;;;3.37;0.60;;;17.80;99.90;;;;;;5091798;28;20522;-70
2021/05/17 14:27:22;;;;;;;1.33;0.40;;;17.90;99.90;;;;;;5091892;28;20555;-72
2021/05/17 14:29:49;;;;;;;0.70;0.40;;;17.10;99.90;;;;;;5091887;28;20480;-71
2021/05/17 14:32:16;;;;;;;0.83;0.50;;;;;;;;;;5091222;28;20508;-71
2021/05/17 14:34:43;;;;;;;0.87;0.70;;;;;;;;;;5091617;28;20445;-71
2021/05/17 14:37:09;;;;;;;1.90;0.63;;;;;;;;;;5091156;28;20454;-70
2021/05/17 14:39:36;;;;;;;0.50;0.50;;;;;;;;;;5091408;28;20444;-70
2021/05/17 14:42:04;;;;;;;2.40;0.63;;;;;;;;;;5090557;28;20524;-70
2021/05/17 14:44:30;;;;;;;2.70;1.00;;;;;;;;;;5091517;28;20472;-71
2021/05/17 14:46:57;;;;;;;1.50;0.70;;;;;;;;;;5090626;28;20821;-69
2021/05/17 14:49:24;;;;;;;1.03;0.93;;;;;;;;;;5091359;28;20886;-70
2021/05/17 14:51:51;;;;;;;1.63;0.50;;;;;;;;;;5091510;28;20487;-70
2021/05/17 14:54:17;;;;;;;1.27;0.70;;;;;;;;;;5090261;28;20968;-70